»·PEaware :: N1718G KLAS-KSNA

N1718G :: KLAS-KSNA

FLIGHT INFORMATION

Flight Status: Arrived
Operator: Privately registered:
United States
More flights under this callsign
Pilot: Spencer M. (27733)
Aircraft: CESSNA 206 STATIONAIR
(C206)
More flights by this aircraft type
Origin: KLAS McCarran Intl
United States
Destination: KSNA John Wayne-Orange Co
United States
More flights between these airports :: More routes between these airports
Route: DANBY CASOG
File this flight plan on PilotEdge
Remarks:
Altitude:
(Current/Filed)
10,500ft
Speed:
(Current/Filed)
160kts
Departed: 04-Mar-20 09:06 PM
Arrived: 04-Mar-20 10:26 PM
Distance/Time
Traveled:
197nm/1:20
Distance/Time
To Go:
Arrived

Flight Plot

Page will automatically refresh every two minutes.


Map Options




Map Legend


Flown Route
Filed Route
Departure Airport
Arrival Airport
Navaid (VOR, NDB)
Fix

Horizontal Profiles

Position Reports

Time Latitude Longitude Heading Altitude Ground
Speed
04-Mar-20 20:43 36.082947 -115.169968 88 2163ft 0kts
04-Mar-20 20:45 36.082947 -115.169968 88 2163ft 0kts
04-Mar-20 20:45 36.082947 -115.169968 88 2163ft 0kts
04-Mar-20 20:46 36.082947 -115.169968 88 2163ft 0kts
04-Mar-20 20:47 36.082947 -115.169968 88 2163ft 0kts
04-Mar-20 20:48 36.082947 -115.169968 88 2163ft 0kts
04-Mar-20 20:49 36.082947 -115.169968 88 2163ft 0kts
04-Mar-20 20:50 36.082947 -115.169968 88 2163ft 0kts
04-Mar-20 20:51 36.082947 -115.169968 88 2163ft 0kts
04-Mar-20 20:52 36.082947 -115.169968 88 2163ft 0kts
04-Mar-20 20:53 36.083533 -115.169143 33 2161ft 11kts
04-Mar-20 20:54 36.086491 -115.166375 25 2145ft 12kts
04-Mar-20 20:55 36.089917 -115.164410 24 2131ft 14kts
04-Mar-20 20:56 36.093818 -115.162192 23 2111ft 14kts
04-Mar-20 20:57 36.097270 -115.160223 24 2098ft 12kts
04-Mar-20 20:58 36.099922 -115.157933 51 2086ft 11kts
04-Mar-20 20:59 36.100033 -115.157483 116 2085ft 0kts
04-Mar-20 21:00 36.100033 -115.157483 116 2085ft 0kts
04-Mar-20 21:01 36.100033 -115.157483 116 2085ft 0kts
04-Mar-20 21:02 36.100033 -115.157483 116 2085ft 0kts
04-Mar-20 21:03 36.100033 -115.157483 116 2085ft 0kts
04-Mar-20 21:04 36.099802 -115.156944 120 2085ft 7kts
04-Mar-20 21:05 36.082785 -115.165631 200 2513ft 114kts
04-Mar-20 21:06 36.050473 -115.180371 199 3677ft 127kts
04-Mar-20 21:07 36.017297 -115.196280 201 4897ft 130kts
04-Mar-20 21:08 35.982997 -115.214454 203 5705ft 132kts
04-Mar-20 21:09 35.951958 -115.239239 215 6293ft 139kts
04-Mar-20 21:10 35.921035 -115.267451 223 6793ft 139kts
04-Mar-20 21:11 35.892022 -115.301880 224 7001ft 154kts
04-Mar-20 21:12 35.859580 -115.338343 219 6999ft 160kts
04-Mar-20 21:13 35.823733 -115.371826 217 6999ft 161kts
04-Mar-20 21:14 35.787852 -115.405167 217 6999ft 161kts
04-Mar-20 21:15 35.753965 -115.440631 222 7162ft 151kts
04-Mar-20 21:16 35.725260 -115.470702 217 8036ft 124kts
04-Mar-20 21:17 35.698185 -115.493361 214 8922ft 111kts
04-Mar-20 21:18 35.673093 -115.511063 208 9802ft 97kts
04-Mar-20 21:19 35.650146 -115.525775 207 10494ft 101kts
04-Mar-20 21:20 35.618032 -115.546614 208 10503ft 150kts
04-Mar-20 21:21 35.579244 -115.571920 208 10500ft 162kts
04-Mar-20 21:22 35.540165 -115.600226 213 10500ft 164kts
04-Mar-20 21:23 35.501794 -115.630801 213 10499ft 164kts
04-Mar-20 21:24 35.463312 -115.661451 213 10499ft 164kts
04-Mar-20 21:25 35.424934 -115.692004 213 10499ft 164kts
04-Mar-20 21:26 35.386595 -115.722513 213 10499ft 164kts
04-Mar-20 21:27 35.348142 -115.753097 213 10499ft 164kts
04-Mar-20 21:28 35.310405 -115.784612 223 10501ft 164kts
04-Mar-20 21:29 35.279224 -115.821307 224 10499ft 164kts
04-Mar-20 21:30 35.247117 -115.859243 224 10499ft 164kts
04-Mar-20 21:31 35.214182 -115.898145 224 10499ft 164kts
04-Mar-20 21:32 35.181205 -115.937086 224 10499ft 164kts
04-Mar-20 21:33 35.148236 -115.976006 224 10499ft 164kts
04-Mar-20 21:34 35.115203 -116.014989 224 10499ft 164kts
04-Mar-20 21:35 35.082359 -116.054094 228 10500ft 164kts
04-Mar-20 21:36 35.052283 -116.096225 229 10499ft 164kts
04-Mar-20 21:37 35.022055 -116.138271 227 10499ft 164kts
04-Mar-20 21:38 34.990829 -116.179178 227 10499ft 164kts
04-Mar-20 21:39 34.958913 -116.219097 223 10499ft 164kts
04-Mar-20 21:40 34.924928 -116.256443 220 10499ft 164kts
04-Mar-20 21:41 34.890182 -116.292896 221 10499ft 164kts
04-Mar-20 21:42 34.855554 -116.329600 221 10499ft 164kts
04-Mar-20 21:43 34.821347 -116.366603 222 10499ft 165kts
04-Mar-20 21:44 34.787365 -116.403887 222 10499ft 165kts
04-Mar-20 21:45 34.753334 -116.441211 222 10499ft 165kts
04-Mar-20 21:46 34.719583 -116.479005 224 10499ft 165kts
04-Mar-20 21:47 34.686638 -116.517731 224 10499ft 165kts
04-Mar-20 21:48 34.653724 -116.556412 224 10499ft 164kts
04-Mar-20 21:49 34.620741 -116.595163 224 10499ft 164kts
04-Mar-20 21:50 34.587827 -116.633823 224 10499ft 164kts
04-Mar-20 21:51 34.555295 -116.672947 224 10499ft 164kts
04-Mar-20 21:52 34.522363 -116.711610 224 10499ft 164kts
04-Mar-20 21:53 34.489418 -116.750272 224 10499ft 164kts
04-Mar-20 21:54 34.456524 -116.788861 224 10499ft 164kts
04-Mar-20 21:55 34.423694 -116.827365 224 10499ft 164kts
04-Mar-20 21:56 34.390753 -116.865987 224 10499ft 164kts
04-Mar-20 21:57 34.357806 -116.904605 224 10499ft 164kts
04-Mar-20 21:58 34.324860 -116.943211 224 10499ft 164kts
04-Mar-20 21:59 34.291934 -116.981782 224 10499ft 164kts
04-Mar-20 22:00 34.257849 -117.021730 224 10152ft 176kts
04-Mar-20 22:01 34.222835 -117.062792 224 9782ft 172kts
04-Mar-20 22:02 34.189237 -117.102139 224 9278ft 166kts
04-Mar-20 22:03 34.156094 -117.140940 224 8776ft 165kts
04-Mar-20 22:04 34.123258 -117.179376 224 8275ft 164kts
04-Mar-20 22:05 34.090456 -117.217766 224 7771ft 163kts
04-Mar-20 22:06 34.058044 -117.255693 224 7270ft 162kts
04-Mar-20 22:07 34.025679 -117.293566 224 6700ft 163kts
04-Mar-20 22:08 33.993058 -117.331735 224 5999ft 163kts
04-Mar-20 22:09 33.960525 -117.369809 224 5297ft 162kts
04-Mar-20 22:10 33.932454 -117.412018 237 4596ft 161kts
04-Mar-20 22:11 33.908821 -117.453373 237 4498ft 139kts
04-Mar-20 22:12 33.887611 -117.492813 237 4500ft 144kts
04-Mar-20 22:13 33.865469 -117.534066 237 4500ft 147kts
04-Mar-20 22:14 33.843171 -117.575615 237 4499ft 148kts
04-Mar-20 22:15 33.821699 -117.618882 246 4296ft 158kts
04-Mar-20 22:16 33.804499 -117.666235 250 3721ft 138kts
04-Mar-20 22:17 33.794007 -117.706831 256 2999ft 120kts
04-Mar-20 22:18 33.787317 -117.744292 257 2425ft 105kts
04-Mar-20 22:19 33.778607 -117.777019 244 2028ft 103kts
04-Mar-20 22:20 33.764349 -117.806256 230 1746ft 101kts
04-Mar-20 22:21 33.742251 -117.825973 207 1420ft 98kts
04-Mar-20 22:22 33.718738 -117.839924 208 978ft 83kts
04-Mar-20 22:23 33.699042 -117.852331 209 477ft 79kts
04-Mar-20 22:24 33.680770 -117.863734 208 72ft 70kts
04-Mar-20 22:25 33.674187 -117.867744 175 60ft 10kts
04-Mar-20 22:26 33.672912 -117.867132 175 60ft 7kts
04-Mar-20 22:27 33.672242 -117.866678 202 60ft 0kts

Navigation Log

Ident Type
Flight plan parsing failed, navigation log unavailable